Pagrindinis puslapis
METAR-TAF:

METAR-TAF

Oro uostai :

Ubonratčathanis, Tailandas

platuma: 15-15N, ilguma: 104-52E, Aukštis: 123 m

Dabartinis oras

Ataskaita buvo paskelbta 1 valandą ir 3 minutes, ne 06:00 UTC
Vėjas 8 kt iš Šiaurės/Šiaurės Rytų, svyruoja nuo Vakarų/Šiaurės Vakarų ir Rytų/Šiaurės Rytų
Temperatūra 31°C
Drėgmė 36%
Slėgis 1017 hPa
Matomumas 10 km arba daugiau
nėra debesų žemiau 1500 m ir nėra kamuolinių lietaus debesų

METAR: VTUU 230600Z 02008KT 300V060 CAVOK 31/14 Q1017 NOSIG

Laikas: 14:03 (07:03 UTC)

Prognozė

Ataskaita buvo paskelbta 2 valandos ir 3 minutes, ne 05:00 UTC
Prognozė galioja nuo 23 metu 06 UTC su 24 metu 06 UTC
Vėjas 10 kt iš Šiaurės Rytų
Matomumas 10 km arba daugiau
nėra debesų žemiau 1500 m ir nėra kamuolinių lietaus debesų

TAF: VTUU 230500Z 2306/2406 04010KT CAVOK

Orai ataskaitas ir orų prognozės (METAR, TAF).

turimą stotys yra geltonos ir raudonos taškus žemėlapyje.

Perkelti pele per norėdami pamatyti stoties vardą.

Tada spustelėkite, norėdami matyti oro stebėjimo ir prognozės.

Norėdami pakeisti žemėlapį: spustelėkite ant žalios mygtukų su juodo kryžiaus žemyn,; žalią mygtuką su brūkšneliu, jei norite nutolinti; arba žalių rodyklių gretimoms žemėlapius.


METAR-TAF: